Time;durP1;ratioP1;P1;durP2;ratioP2;P2;SDS_P1;SDS_P2;PMS_P1;PMS_P2;Temp;Humidity;BMP_temperature;BMP_pressure;BME280_temperature;BME280_humidity;BME280_pressure;Samples;Min_cycle;Max_cycle;Signal;HPM_P1;HPM_P2
2021/10/21 00:00:54;;;;;;;12.75;8.90;;;;;;;12.27;60.56;98046.03;2152115;83;21324;-79
2021/10/21 00:03:54;;;;;;;14.58;8.68;;;;;;;12.13;61.16;98043.05;2152200;83;20965;-79
2021/10/21 00:06:55;;;;;;;16.95;8.98;;;;;;;11.97;61.74;98047.09;2152060;83;20982;-80
2021/10/21 00:09:56;;;;;;;18.57;9.13;;;;;;;11.84;62.61;98038.89;2152075;83;21025;-80
2021/10/21 00:12:57;;;;;;;12.30;9.08;;;;;;;11.74;62.89;98031.50;2059395;87;20954;-80
2021/10/21 00:15:57;;;;;;;14.13;9.28;;;;;;;11.65;62.95;98032.42;2152277;82;20954;-80
2021/10/21 00:18:58;;;;;;;16.55;8.95;;;;;;;11.61;62.94;98025.91;2152600;83;21262;-80
2021/10/21 00:21:58;;;;;;;18.30;9.90;;;;;;;11.54;63.00;98020.29;2152676;83;21321;-81
2021/10/21 00:24:59;;;;;;;10.35;8.73;;;;;;;11.48;62.98;98019.44;2152641;83;20942;-81
2021/10/21 00:27:59;;;;;;;11.50;8.95;;;;;;;11.47;62.84;98016.40;2152600;83;20934;-80
2021/10/21 00:31:00;;;;;;;13.33;8.97;;;;;;;11.47;62.81;98007.69;2151445;83;21029;-80
2021/10/21 00:34:00;;;;;;;9.97;8.97;;;;;;;11.46;63.05;97997.67;2151815;83;20926;-80
2021/10/21 00:37:01;;;;;;;13.63;8.73;;;;;;;11.39;63.24;97993.36;2151740;83;20935;-80
2021/10/21 00:40:01;;;;;;;13.57;9.00;;;;;;;11.35;63.33;97989.02;2151704;83;21012;-81
2021/10/21 00:43:02;;;;;;;14.73;9.17;;;;;;;11.28;63.83;97986.45;2152153;83;20978;-81
2021/10/21 00:46:02;;;;;;;11.37;9.10;;;;;;;11.16;63.99;97975.58;2152262;83;20990;-81
2021/10/21 00:49:03;;;;;;;13.37;9.43;;;;;;;11.09;64.05;97971.27;2152534;83;21341;-81
2021/10/21 00:52:04;;;;;;;17.83;9.40;;;;;;;11.04;64.17;97969.11;2152756;83;20966;-82
2021/10/21 00:55:04;;;;;;;12.97;9.30;;;;;;;11.01;64.11;97967.81;2152846;82;20934;-82
2021/10/21 00:58:05;;;;;;;25.33;14.73;;;;;;;10.97;64.16;97959.13;2152259;83;20942;-81
2021/10/21 01:01:05;;;;;;;18.33;9.90;;;;;;;10.94;64.16;97952.60;2152329;83;20930;-81
2021/10/21 01:04:06;;;;;;;12.70;9.47;;;;;;;10.95;64.08;97952.17;2152587;83;21323;-81
2021/10/21 01:07:06;;;;;;;15.67;10.13;;;;;;;10.96;64.03;97943.45;2059716;87;20911;-81
2021/10/21 01:10:07;;;;;;;13.03;9.17;;;;;;;10.93;64.08;97933.89;2152326;83;20981;-80
2021/10/21 01:13:07;;;;;;;14.90;10.30;;;;;;;10.91;64.09;97932.17;2152897;83;20945;-81
2021/10/21 01:16:09;;;;;;;13.57;9.87;;;;;;;10.90;64.23;97927.81;2152474;83;20970;-80
2021/10/21 01:19:10;;;;;;;14.30;9.73;;;;;;;10.88;64.19;97923.04;2152430;83;21384;-81
2021/10/21 01:22:10;;;;;;;14.03;10.43;;;;;;;10.84;64.29;97920.44;2152556;83;20934;-82
2021/10/21 01:25:11;;;;;;;16.77;10.47;;;;;;;10.81;64.39;97913.92;2152425;83;20939;-80
2021/10/21 01:28:12;;;;;;;14.73;9.93;;;;;;;10.79;64.41;97911.77;2152562;83;21310;-81
2021/10/21 01:31:12;;;;;;;28.67;11.10;;;;;;;10.78;64.65;97906.11;2152386;83;21333;-79
2021/10/21 01:34:13;;;;;;;13.30;10.27;;;;;;;10.73;64.58;97905.26;2152415;83;20942;-81
2021/10/21 01:37:13;;;;;;;17.40;10.20;;;;;;;10.71;64.83;97900.92;2152506;83;20911;-80
2021/10/21 01:40:14;;;;;;;13.53;10.93;;;;;;;10.70;64.91;97897.44;2152034;83;21179;-79
2021/10/21 01:43:15;;;;;;;15.87;10.30;;;;;;;10.65;65.06;97886.15;2059620;87;20914;-81
2021/10/21 01:46:16;;;;;;;13.27;10.33;;;;;;;10.61;65.13;97877.91;2152444;83;20970;-82
2021/10/21 01:49:18;;;;;;;15.93;11.20;;;;;;;10.59;65.43;97880.09;2059737;87;21017;-81
2021/10/21 01:52:19;;;;;;;17.17;10.73;;;;;;;10.58;65.46;97877.91;2152306;82;20957;-80
2021/10/21 01:55:19;;;;;;;17.50;10.77;;;;;;;10.59;65.53;97865.30;2155162;82;20954;-81
2021/10/21 01:58:20;;;;;;;75.23;25.00;;;;;;;10.55;65.52;97856.18;2182065;82;20929;-82
2021/10/21 02:01:20;;;;;;;16.33;11.03;;;;;;;10.60;69.14;97848.77;2182114;82;20932;-82
2021/10/21 02:04:21;;;;;;;14.57;10.50;;;;;;;11.08;65.22;97842.42;2182062;82;20965;-81
2021/10/21 02:07:21;;;;;;;18.50;10.93;;;;;;;10.96;64.91;97837.71;2182125;82;20952;-81
2021/10/21 02:10:22;;;;;;;29.53;12.27;;;;;;;10.88;64.86;97839.50;2182048;82;20988;-82
2021/10/21 02:13:22;;;;;;;12.33;9.00;;;;;;;10.82;65.07;97836.05;2182236;82;21376;-81
2021/10/21 02:16:23;;;;;;;12.33;9.83;;;;;;;10.79;64.99;97833.89;2181721;82;20952;-80
2021/10/21 02:19:23;;;;;;;16.40;10.73;;;;;;;10.74;65.09;97828.69;2181827;82;20984;-81
2021/10/21 02:22:24;;;;;;;18.83;10.23;;;;;;;10.74;65.27;97819.55;2181526;82;20968;-81
2021/10/21 02:25:24;;;;;;;18.60;10.20;;;;;;;10.73;65.35;97817.81;2182501;82;20977;-81
2021/10/21 02:28:25;;;;;;;13.17;9.73;;;;;;;10.73;65.25;97815.64;2182100;82;21294;-80
2021/10/21 02:31:25;;;;;;;29.20;17.23;;;;;;;10.75;65.39;97812.16;2181814;82;20984;-79
2021/10/21 02:34:26;;;;;;;12.20;9.77;;;;;;;10.78;65.48;97808.66;2182007;82;20937;-81
2021/10/21 02:37:26;;;;;;;15.73;10.40;;;;;;;10.83;65.19;97803.84;2182157;82;20968;-81
2021/10/21 02:40:27;;;;;;;11.93;9.43;;;;;;;10.88;65.16;97800.34;2178644;81;21008;-81
2021/10/21 02:43:28;;;;;;;12.83;9.40;;;;;;;10.94;65.13;97805.52;2165335;82;21348;-82
2021/10/21 02:46:29;;;;;;;13.93;9.47;;;;;;;11.00;65.03;97803.73;2165370;82;20929;-81
2021/10/21 02:49:29;;;;;;;16.43;9.60;;;;;;;11.06;64.98;97795.00;2175926;82;20921;-80
2021/10/21 02:52:30;;;;;;;11.30;9.63;;;;;;;11.10;64.97;97798.02;2181532;82;20945;-80
2021/10/21 02:55:30;;;;;;;13.13;9.23;;;;;;;11.14;64.92;97794.06;2181302;82;20997;-81
2021/10/21 02:58:31;;;;;;;17.20;9.50;;;;;;;11.18;64.79;97793.16;2181372;82;21000;-80
2021/10/21 03:01:31;;;;;;;23.20;10.07;;;;;;;11.22;64.75;97787.91;2181648;82;20921;-81
2021/10/21 03:04:32;;;;;;;14.20;8.93;;;;;;;11.26;64.74;97777.88;2182125;82;20932;-82
2021/10/21 03:07:32;;;;;;;18.90;12.67;;;;;;;11.30;64.60;97771.34;2181922;82;20952;-78
2021/10/21 03:10:33;;;;;;;11.80;10.27;;;;;;;11.36;64.52;97767.37;2181184;82;21040;-79
2021/10/21 03:13:33;;;;;;;11.80;9.53;;;;;;;11.41;64.36;97768.19;2181753;82;21397;-80
2021/10/21 03:16:38;;;;;;;13.27;10.23;;;;;;;11.47;64.27;97761.61;2181878;82;21301;-79
2021/10/21 03:19:38;;;;;;;18.23;10.63;;;;;;;11.52;64.22;97750.25;2181606;82;20932;-79
2021/10/21 03:22:39;;;;;;;16.67;9.30;;;;;;;11.58;63.98;97739.73;2181714;82;21344;-79
2021/10/21 03:25:40;;;;;;;83.37;14.77;;;;;;;11.63;63.82;97742.73;2181704;82;20992;-80
2021/10/21 03:28:40;;;;;;;35.13;12.23;;;;;;;11.66;63.74;97740.08;2181546;82;20936;-79
2021/10/21 03:31:41;;;;;;;14.50;10.37;;;;;;;11.71;63.74;97733.50;2182421;82;20957;-80
2021/10/21 03:34:41;;;;;;;13.03;10.17;;;;;;;11.74;63.56;97730.86;2181701;82;20890;-81
2021/10/21 03:37:41;;;;;;;17.37;11.07;;;;;;;11.79;63.50;97733.02;2181696;82;21312;-80
2021/10/21 03:40:42;;;;;;;13.87;9.67;;;;;;;11.84;63.44;97730.34;2181420;82;21015;-80
2021/10/21 03:43:43;;;;;;;15.37;11.10;;;;;;;11.87;63.39;97723.78;2181068;82;20949;-81
2021/10/21 03:46:43;;;;;;;23.70;10.70;;;;;;;11.90;63.41;97722.44;2181088;82;20940;-80
2021/10/21 03:49:44;;;;;;;11.70;9.35;;;;;;;11.95;63.36;97720.64;2181248;82;20973;-81
2021/10/21 03:52:44;;;;;;;16.33;10.80;;;;;;;11.97;63.27;97709.27;2181735;82;20941;-80
2021/10/21 03:55:45;;;;;;;14.60;9.85;;;;;;;11.99;63.30;97702.72;2180443;82;20948;-80
2021/10/21 03:58:45;;;;;;;15.13;9.93;;;;;;;11.97;63.32;97697.50;2180562;82;20985;-80
2021/10/21 04:01:47;;;;;;;15.00;10.50;;;;;;;11.97;63.29;97690.97;2180926;82;20989;-81
2021/10/21 04:04:47;;;;;;;14.20;10.57;;;;;;;11.98;63.28;97683.98;2100017;85;20977;-81
2021/10/21 04:07:48;;;;;;;12.67;9.70;;;;;;;11.98;63.19;97680.06;2129475;84;21005;-80
2021/10/21 04:10:49;;;;;;;16.80;10.83;;;;;;;12.00;63.23;97673.06;2099522;85;21032;-80
2021/10/21 04:13:49;;;;;;;11.65;9.65;;;;;;;12.02;63.38;97661.70;2129481;84;20965;-79
2021/10/21 04:16:50;;;;;;;16.30;10.27;;;;;;;12.08;63.28;97659.00;2099951;85;21009;-79
2021/10/21 04:19:51;;;;;;;14.47;9.18;;;;;;;12.15;63.26;97660.27;2129853;84;20993;-79
2021/10/21 04:22:53;;;;;;;15.38;10.63;;;;;;;12.17;63.14;97649.34;2098960;85;22251;-78
2021/10/21 04:25:53;;;;;;;14.47;9.93;;;;;;;12.11;63.21;97645.02;2128153;84;21008;-79
2021/10/21 04:28:54;;;;;;;13.23;10.33;;;;;;;12.06;63.25;97641.59;2098942;85;20917;-80
2021/10/21 04:31:54;;;;;;;11.78;10.23;;;;;;;12.05;63.30;97646.41;2128510;84;21415;-79
2021/10/21 04:34:55;;;;;;;17.07;10.10;;;;;;;12.05;63.30;97644.66;2099881;85;20989;-80
2021/10/21 04:37:56;;;;;;;15.53;11.33;;;;;;;12.06;63.28;97637.23;2129947;84;20973;-79
2021/10/21 04:40:56;;;;;;;14.70;10.72;;;;;;;12.07;63.26;97635.48;2100708;85;20981;-80
2021/10/21 04:43:57;;;;;;;18.53;10.63;;;;;;;12.10;63.32;97631.52;2130271;84;20984;-80
2021/10/21 04:46:58;;;;;;;15.33;10.27;;;;;;;12.12;63.34;97622.77;2100561;85;21336;-80
2021/10/21 04:49:59;;;;;;;19.50;11.20;;;;;;;12.16;63.25;97614.91;2129983;84;20984;-79
2021/10/21 04:52:59;;;;;;;18.32;10.40;;;;;;;12.17;63.26;97607.48;2100138;85;20953;-79
2021/10/21 04:56:00;;;;;;;19.62;10.75;;;;;;;12.20;63.11;97599.59;2129011;84;20977;-80
2021/10/21 04:59:00;;;;;;;129.15;19.90;;;;;;;12.20;63.08;97596.53;2121259;84;20926;-80
2021/10/21 05:02:01;;;;;;;20.37;11.45;;;;;;;12.23;63.14;97582.54;2121338;84;21322;-79
2021/10/21 05:05:01;;;;;;;15.73;10.43;;;;;;;12.25;63.07;97576.84;2122194;84;20966;-79
2021/10/21 05:08:02;;;;;;;12.07;10.72;;;;;;;12.25;63.00;97564.63;2121790;84;20946;-81
2021/10/21 05:11:03;;;;;;;41.60;12.43;;;;;;;12.25;63.08;97558.08;2122006;84;21037;-79
2021/10/21 05:14:06;;;;;;;19.57;11.73;;;;;;;12.26;63.11;97555.02;2121804;84;20992;-80
2021/10/21 05:17:07;;;;;;;139.85;21.97;;;;;;;12.28;63.01;97556.73;2121884;84;20942;-79
2021/10/21 05:20:08;;;;;;;21.33;12.43;;;;;;;12.32;63.06;97565.39;2122250;84;21326;-79
2021/10/21 05:23:09;;;;;;;36.85;13.48;;;;;;;12.35;62.93;97560.98;2121925;84;20982;-79
2021/10/21 05:26:10;;;;;;;24.10;12.35;;;;;;;12.35;62.91;97562.73;2121673;84;20967;-81
2021/10/21 05:29:10;;;;;;;17.10;12.30;;;;;;;12.35;62.91;97573.20;2122072;84;20986;-81
2021/10/21 05:32:11;;;;;;;40.12;14.50;;;;;;;12.35;62.95;97568.83;2121160;84;21008;-80
2021/10/21 05:35:11;;;;;;;32.55;16.65;;;;;;;12.42;62.92;97574.83;2121230;84;20958;-81
2021/10/21 05:38:12;;;;;;;215.15;25.45;;;;;;;12.46;62.78;97577.82;2121686;84;20941;-80
2021/10/21 05:41:12;;;;;;;22.42;13.03;;;;;;;12.49;62.94;97558.58;2121967;84;21381;-80
2021/10/21 05:44:13;;;;;;;13.80;10.25;;;;;;;12.47;62.94;97546.83;2122013;84;20938;-80
2021/10/21 05:47:14;;;;;;;17.07;11.43;;;;;;;12.46;62.99;97554.27;2122117;84;20946;-80
2021/10/21 05:50:14;;;;;;;60.10;14.03;;;;;;;12.45;62.98;97543.38;2121179;84;20994;-80
2021/10/21 05:53:15;;;;;;;265.48;28.67;;;;;;;12.42;63.09;97540.81;2121078;84;21370;-81
2021/10/21 05:56:15;;;;;;;25.30;11.53;;;;;;;12.34;63.37;97526.98;2121606;84;21357;-80
2021/10/21 05:59:16;;;;;;;112.42;17.82;;;;;;;12.24;63.46;97520.17;2100583;85;20937;-80
2021/10/21 06:02:16;;;;;;;17.80;10.80;;;;;;;12.15;63.58;97502.88;2130542;84;20945;-80
2021/10/21 06:05:21;;;;;;;28.17;11.08;;;;;;;12.09;63.61;97497.26;2099606;85;20961;-80
2021/10/21 06:08:19;;;;;;;44.63;12.80;;;;;;;12.05;63.82;97485.12;2128745;83;21151;-81
2021/10/21 06:11:20;;;;;;;68.95;15.30;;;;;;;12.02;63.84;97469.47;2099435;85;21008;-80
2021/10/21 06:14:20;;;;;;;13.70;9.98;;;;;;;11.98;63.92;97454.72;2129822;84;21353;-80
2021/10/21 06:17:23;;;;;;;16.30;10.75;;;;;;;11.95;64.25;97433.84;2100287;85;21000;-81
2021/10/21 06:20:23;;;;;;;14.53;10.63;;;;;;;11.90;64.22;97417.37;2129853;84;21001;-80
2021/10/21 06:23:25;;;;;;;13.38;10.65;;;;;;;11.94;64.04;97414.26;2079864;85;20980;-80
2021/10/21 06:26:27;;;;;;;12.70;10.03;;;;;;;12.04;63.86;97421.06;2129549;84;20985;-79
2021/10/21 06:29:27;;;;;;;13.40;10.63;;;;;;;12.18;63.59;97433.94;2099753;85;20973;-80
2021/10/21 06:32:28;;;;;;;12.28;10.38;;;;;;;12.34;63.24;97430.17;2129291;84;20942;-79
2021/10/21 06:35:28;;;;;;;13.72;10.08;;;;;;;12.51;62.87;97424.19;2100582;85;20926;-80
2021/10/21 06:38:30;;;;;;;13.40;9.93;;;;;;;12.67;62.41;97411.23;2129773;84;20938;-80
2021/10/21 06:41:30;;;;;;;18.62;9.88;;;;;;;12.80;62.04;97425.39;2099840;85;20992;-79
2021/10/21 06:44:31;;;;;;;15.88;9.80;;;;;;;12.95;61.77;97435.56;2129964;84;20937;-79
2021/10/21 06:47:33;;;;;;;16.12;9.83;;;;;;;13.09;61.15;97432.25;2100505;85;21336;-80
2021/10/21 06:50:34;;;;;;;12.25;10.03;;;;;;;13.25;60.96;97428.89;2129015;84;20969;-79
2021/10/21 06:53:34;;;;;;;15.35;10.50;;;;;;;13.40;60.17;97436.42;2100558;85;20949;-81
2021/10/21 06:56:36;;;;;;;13.88;10.30;;;;;;;13.56;60.34;97443.50;2129099;84;20986;-81
2021/10/21 06:59:37;;;;;;;17.87;10.68;;;;;;;13.74;59.79;97448.78;2121733;84;21057;-79
2021/10/21 07:02:37;;;;;;;18.95;10.53;;;;;;;13.94;59.25;97454.45;2122485;84;20942;-80
2021/10/21 07:05:42;;;;;;;22.75;11.28;;;;;;;14.15;59.32;97460.95;2121911;84;20950;-80
2021/10/21 07:08:43;;;;;;;24.90;11.85;;;;;;;14.39;58.61;97469.98;2121105;84;20998;-80
2021/10/21 07:11:43;;;;;;;15.05;10.08;;;;;;;14.66;57.94;97480.67;2121087;84;21012;-80
2021/10/21 07:14:44;;;;;;;16.23;11.05;;;;;;;14.72;57.31;97503.29;2122034;84;20950;-80
2021/10/21 07:17:44;;;;;;;16.62;11.88;;;;;;;14.75;57.70;97508.95;2121389;84;20930;-79
2021/10/21 07:20:45;;;;;;;13.32;11.90;;;;;;;14.91;57.70;97508.95;2121122;84;21348;-81
2021/10/21 07:23:45;;;;;;;18.42;10.80;;;;;;;14.91;57.70;97508.95;2121161;84;21357;-80
2021/10/21 07:26:46;;;;;;;14.87;10.53;;;;;;;15.05;57.63;97493.68;2121332;84;20957;-81
2021/10/21 07:29:47;;;;;;;14.60;10.85;;;;;;;15.12;57.20;97491.74;2120710;84;21029;-80
2021/10/21 07:32:47;;;;;;;13.93;11.73;;;;;;;15.15;57.64;97487.72;2120879;84;20990;-81
2021/10/21 07:35:48;;;;;;;14.15;10.35;;;;;;;15.27;57.94;97473.77;2119658;84;20946;-81
2021/10/21 07:38:48;;;;;;;11.30;9.18;;;;;;;15.41;57.71;97469.88;2120304;84;20957;-81
2021/10/21 07:41:49;;;;;;;12.47;9.63;;;;;;;15.52;57.45;97455.52;2120695;84;21373;-81
2021/10/21 07:44:50;;;;;;;11.80;9.63;;;;;;;15.58;57.46;97442.66;2120763;84;21661;-81
2021/10/21 07:47:50;;;;;;;15.75;9.63;;;;;;;15.66;57.59;97423.59;2120604;84;20971;-81
2021/10/21 07:50:51;;;;;;;10.78;9.13;;;;;;;15.72;57.18;97427.80;2120390;84;20965;-81
2021/10/21 07:53:51;;;;;;;12.82;9.28;;;;;;;15.85;57.25;97435.27;2120445;84;20946;-80
2021/10/21 07:56:54;;;;;;;36.05;10.48;;;;;;;15.92;57.11;97442.52;2122059;84;20985;-81
2021/10/21 07:59:55;;;;;;;18.45;10.95;;;;;;;15.93;56.74;97452.99;2100308;85;20949;-80
2021/10/21 08:02:55;;;;;;;10.40;8.80;;;;;;;16.08;56.37;97465.25;2129406;84;21317;-81
2021/10/21 08:05:56;;;;;;;11.73;9.83;;;;;;;16.23;55.54;97473.98;2099568;85;20930;-80
2021/10/21 08:08:57;;;;;;;12.53;10.48;;;;;;;16.35;55.63;97484.11;2130236;84;20965;-80
2021/10/21 08:11:57;;;;;;;16.35;11.38;;;;;;;16.47;55.42;97489.00;2099094;85;20985;-80
2021/10/21 08:14:58;;;;;;;19.05;11.68;;;;;;;16.71;55.19;97478.59;2129754;84;20953;-81
2021/10/21 08:17:58;;;;;;;12.98;10.23;;;;;;;16.98;54.41;97467.54;2100354;85;21357;-80
2021/10/21 08:20:59;;;;;;;11.08;9.45;;;;;;;17.21;52.95;97459.66;2129813;84;20962;-81
2021/10/21 08:24:00;;;;;;;1264.83;144.25;;;;;;;17.39;52.23;97464.29;2100233;85;20957;-82
2021/10/21 08:27:00;;;;;;;41.33;12.93;;;;;;;17.63;51.28;97455.91;2130548;84;20985;-80
2021/10/21 08:30:01;;;;;;;22.48;11.48;;;;;;;17.93;51.24;97442.00;2100425;85;20953;-81
2021/10/21 08:33:03;;;;;;;11.40;9.55;;;;;;;18.21;50.05;97456.31;2129429;84;20950;-80
2021/10/21 08:36:04;;;;;;;10.53;9.23;;;;;;;18.27;50.36;97457.84;2099611;85;21048;-80
2021/10/21 08:39:07;;;;;;;13.90;10.32;;;;;;;18.35;49.50;97461.89;2129809;84;20977;-81
2021/10/21 08:42:08;;;;;;;17.60;12.88;;;;;;;18.38;49.55;97456.48;2100086;85;21079;-81
2021/10/21 08:45:09;;;;;;;13.90;11.45;;;;;;;18.36;49.46;97462.28;2130720;84;21329;-80
2021/10/21 08:48:10;;;;;;;15.93;10.53;;;;;;;18.45;49.31;97461.91;2100224;85;20940;-80
2021/10/21 08:51:10;;;;;;;71.47;15.38;;;;;;;18.56;49.21;97465.88;2129645;84;21012;-79
2021/10/21 08:54:11;;;;;;;15.05;11.90;;;;;;;18.70;49.73;97461.77;2100116;85;21396;-81
2021/10/21 08:57:12;;;;;;;19.35;12.60;;;;;;;18.64;49.39;97466.45;2126619;84;21001;-80
2021/10/21 09:00:13;;;;;;;15.70;12.47;;;;;;;18.45;49.82;97468.51;2058459;87;20965;-80
2021/10/21 09:03:22;;;;;;;21.62;14.20;;;;;;;18.23;49.15;97474.73;2058897;86;21331;-80
2021/10/21 09:06:33;;;;;;;23.70;15.63;;;;;;;18.02;50.17;97472.46;2057636;86;21021;-80
2021/10/21 09:09:27;;;;;;;30.27;18.80;;;;;;;17.94;50.46;97486.42;2057428;86;20962;-80
2021/10/21 09:12:28;;;;;;;26.73;15.95;;;;;;;17.87;50.31;97483.63;2058371;86;20993;-79
2021/10/21 09:15:28;;;;;;;18.45;12.93;;;;;;;17.74;50.90;97497.29;2057814;87;20965;-80
2021/10/21 09:18:29;;;;;;;21.82;12.30;;;;;;;17.60;51.18;97496.92;2058327;86;21010;-79
2021/10/21 09:21:30;;;;;;;16.62;12.43;;;;;;;17.49;51.67;97493.82;2058502;87;20958;-80
2021/10/21 09:24:30;;;;;;;24.15;15.18;;;;;;;17.37;51.75;97499.55;2136132;83;21324;-81
2021/10/21 09:27:31;;;;;;;20.65;14.53;;;;;;;17.25;52.12;97510.52;2059285;87;20933;-79
2021/10/21 09:30:31;;;;;;;24.70;16.77;;;;;;;17.14;52.55;97517.03;2058852;87;21029;-80
2021/10/21 09:33:32;;;;;;;28.67;17.95;;;;;;;17.03;52.73;97523.59;2058964;86;21114;-81
2021/10/21 09:36:34;;;;;;;25.23;15.90;;;;;;;16.91;53.14;97510.38;2059368;87;20965;-81
2021/10/21 09:39:37;;;;;;;24.65;13.58;;;;;;;16.79;53.82;97456.78;2135886;83;20949;-82
2021/10/21 09:42:37;;;;;;;25.88;14.38;;;;;;;16.65;54.68;97449.78;2136131;83;21008;-80
2021/10/21 09:45:40;;;;;;;23.77;13.20;;;;;;;16.47;55.97;97444.23;2136274;83;21045;-80
2021/10/21 09:48:40;;;;;;;17.95;13.65;;;;;;;16.32;56.89;97426.28;2136535;83;21377;-82
2021/10/21 09:51:41;;;;;;;19.77;14.35;;;;;;;16.18;57.31;97395.14;2135480;83;20965;-81
2021/10/21 09:54:42;;;;;;;25.02;14.33;;;;;;;16.06;58.46;97395.55;2135986;83;20969;-81
2021/10/21 09:57:42;;;;;;;28.23;17.98;;;;;;;15.97;58.73;97379.20;2067577;85;21380;-81
2021/10/21 10:00:43;;;;;;;18.87;15.30;;;;;;;15.88;59.86;97371.16;2129970;84;20956;-82
2021/10/21 10:03:43;;;;;;;21.93;14.03;;;;;;;15.77;60.08;97393.01;2099781;85;20961;-82
2021/10/21 10:06:44;;;;;;;18.70;13.43;;;;;;;15.67;59.71;97404.28;2129745;84;20961;-80
2021/10/21 10:09:45;;;;;;;18.80;13.18;;;;;;;15.62;60.07;97421.97;2099937;85;20961;-82
2021/10/21 10:12:45;;;;;;;18.37;13.93;;;;;;;15.55;60.35;97413.80;2129823;84;21005;-81
2021/10/21 10:15:47;;;;;;;23.98;14.05;;;;;;;15.44;60.28;97419.84;2100357;85;20957;-82
2021/10/21 10:18:47;;;;;;;15.05;13.45;;;;;;;15.39;59.99;97420.42;2130005;84;21393;-81
2021/10/21 10:21:50;;;;;;;21.05;14.33;;;;;;;15.32;60.91;97415.80;2100256;85;20937;-82
2021/10/21 10:24:50;;;;;;;16.10;13.20;;;;;;;15.25;60.19;97424.78;2128752;83;21390;-80
2021/10/21 10:27:50;;;;;;;18.52;14.18;;;;;;;15.18;60.69;97425.86;2099621;85;21000;-79
2021/10/21 10:30:51;;;;;;;21.42;13.95;;;;;;;15.14;60.09;97440.86;2129705;84;21321;-81
2021/10/21 10:33:52;;;;;;;19.67;14.58;;;;;;;15.14;60.13;97456.63;2100193;85;21000;-82
2021/10/21 10:36:52;;;;;;;17.02;15.13;;;;;;;15.12;60.34;97462.38;2129865;84;20957;-80
2021/10/21 10:39:53;;;;;;;24.25;15.40;;;;;;;15.09;60.06;97453.72;2100231;85;20954;-79
2021/10/21 10:42:53;;;;;;;19.52;15.28;;;;;;;15.06;60.44;97457.75;2130268;84;20997;-80
2021/10/21 10:45:54;;;;;;;19.57;15.63;;;;;;;15.03;60.51;97435.50;2100846;85;20960;-81
2021/10/21 10:48:55;;;;;;;23.52;15.65;;;;;;;14.98;60.53;97432.55;2130451;84;20957;-81
2021/10/21 10:51:56;;;;;;;23.83;15.43;;;;;;;14.92;60.90;97426.61;2100534;85;21369;-80
2021/10/21 10:57:59;;;;;;;27.35;17.82;;;;;;;14.81;61.57;97340.67;2078820;85;21080;-79
2021/10/21 11:00:59;;;;;;;27.58;17.20;;;;;;;14.79;61.50;97351.22;2174840;82;20977;-78
2021/10/21 11:04:00;;;;;;;25.30;16.23;;;;;;;14.84;61.46;97358.97;2175016;82;20914;-80
2021/10/21 11:07:00;;;;;;;30.50;18.12;;;;;;;14.89;61.27;97378.09;2175208;82;20925;-81
2021/10/21 11:10:01;;;;;;;21.20;16.23;;;;;;;14.96;61.10;97360.79;2174491;82;21337;-81
2021/10/21 11:13:01;;;;;;;26.65;15.88;;;;;;;15.01;61.12;97354.09;2174927;82;21371;-79
2021/10/21 11:16:02;;;;;;;24.70;16.07;;;;;;;15.08;60.81;97349.51;2174533;82;20945;-80
2021/10/21 11:19:03;;;;;;;21.02;14.40;;;;;;;15.19;60.90;97341.71;2094371;85;20945;-79
2021/10/21 11:22:03;;;;;;;31.77;16.40;;;;;;;15.34;60.40;97342.14;2093874;85;20965;-80
2021/10/21 11:25:04;;;;;;;19.05;14.45;;;;;;;15.45;60.35;97336.96;2094415;85;20965;-81
2021/10/21 11:28:05;;;;;;;19.17;13.68;;;;;;;15.54;60.07;97341.06;2094267;85;20935;-81
2021/10/21 11:31:05;;;;;;;21.57;15.20;;;;;;;15.60;59.99;97325.13;2094423;85;21681;-79
2021/10/21 11:34:06;;;;;;;18.15;13.93;;;;;;;15.69;59.71;97325.31;2094702;85;20958;-80
2021/10/21 11:37:07;;;;;;;31.82;15.35;;;;;;;15.74;59.60;97326.88;2094237;85;21168;-79
2021/10/21 11:40:07;;;;;;;19.82;14.58;;;;;;;15.76;59.66;97325.06;2094572;85;21385;-80
2021/10/21 11:43:08;;;;;;;19.32;13.53;;;;;;;15.74;59.39;97326.02;2094544;85;21365;-79
2021/10/21 11:46:10;;;;;;;26.55;13.80;;;;;;;15.69;59.60;97318.28;2094688;85;20918;-79
2021/10/21 11:49:10;;;;;;;20.88;12.00;;;;;;;15.69;59.56;97316.97;2094862;85;20961;-81
2021/10/21 11:52:10;;;;;;;18.70;12.60;;;;;;;15.70;58.98;97322.63;2095276;85;21060;-79
2021/10/21 11:55:11;;;;;;;31.17;12.68;;;;;;;15.75;59.21;97306.70;2094689;85;20977;-79
2021/10/21 11:58:12;;;;;;;42.75;11.65;;;;;;;15.79;58.70;97310.95;2094331;85;20996;-80
2021/10/21 12:01:12;;;;;;;14.78;11.15;;;;;;;15.87;58.28;97309.78;2093933;85;20950;-79
2021/10/21 12:04:13;;;;;;;27.32;12.63;;;;;;;15.95;58.04;97336.30;2093890;85;21393;-78
2021/10/21 12:07:13;;;;;;;23.80;11.18;;;;;;;15.98;57.96;97321.72;2093990;85;21443;-80
2021/10/21 12:10:14;;;;;;;22.32;10.75;;;;;;;16.01;57.92;97330.37;2094255;85;20997;-81
2021/10/21 12:13:14;;;;;;;16.73;9.75;;;;;;;16.01;57.92;97330.37;2093911;85;21467;-82
2021/10/21 12:16:15;;;;;;;12.68;9.13;;;;;;;16.02;57.68;97341.30;2174342;82;20937;-82
2021/10/21 12:19:15;;;;;;;13.98;9.50;;;;;;;16.03;57.21;97335.58;2174102;82;20941;-81
2021/10/21 12:22:17;;;;;;;13.53;9.45;;;;;;;16.03;57.21;97335.58;2174454;82;20945;-82
2021/10/21 12:25:18;;;;;;;16.82;9.25;;;;;;;16.05;57.36;97331.13;2094888;85;21009;-80
2021/10/21 12:28:19;;;;;;;10.48;8.20;;;;;;;16.05;57.04;97342.52;2094728;85;20958;-80
2021/10/21 12:31:20;;;;;;;19.77;9.33;;;;;;;16.05;57.04;97342.52;2094658;85;20973;-79
2021/10/21 12:34:20;;;;;;;20.08;8.88;;;;;;;16.03;56.81;97331.63;2093157;85;21030;-79
2021/10/21 12:37:23;;;;;;;17.42;7.65;;;;;;;16.01;56.84;97318.98;2094484;85;20949;-79
2021/10/21 12:40:24;;;;;;;20.10;7.83;;;;;;;15.97;56.58;97334.02;2174356;82;21009;-81
2021/10/21 12:43:27;;;;;;;12.00;7.87;;;;;;;15.96;56.56;97341.50;2094735;85;21389;-81
2021/10/21 12:46:27;;;;;;;19.17;8.00;;;;;;;15.93;56.75;97341.15;2094528;85;20957;-80
2021/10/21 12:49:27;;;;;;;11.50;7.55;;;;;;;15.91;56.56;97344.75;2093755;85;21013;-81
2021/10/21 12:52:28;;;;;;;25.45;8.08;;;;;;;15.92;55.83;97349.95;2093415;85;21044;-81
2021/10/21 12:55:33;;;;;;;18.23;7.15;;;;;;;15.94;56.07;97339.38;2093597;85;21009;-82
2021/10/21 12:58:31;;;;;;;12.90;6.92;;;;;;;15.97;56.03;97339.73;2168054;82;21377;-82
2021/10/21 13:01:31;;;;;;;22.65;7.20;;;;;;;15.95;55.68;97330.58;2150741;83;20985;-81
2021/10/21 13:04:32;;;;;;;9.60;6.40;;;;;;;15.96;55.28;97340.64;2151421;83;20953;-80
2021/10/21 13:07:33;;;;;;;25.45;7.83;;;;;;;16.00;55.25;97344.44;2151384;83;20969;-80
2021/10/21 13:10:33;;;;;;;16.70;6.85;;;;;;;16.01;55.15;97347.47;2151583;83;20966;-82
2021/10/21 13:13:34;;;;;;;17.50;7.00;;;;;;;16.07;55.09;97333.25;2151158;83;21037;-82
2021/10/21 13:16:35;;;;;;;9.73;6.47;;;;;;;16.09;54.98;97340.18;2151716;83;20906;-82
2021/10/21 13:19:36;;;;;;;8.18;5.95;;;;;;;16.10;54.87;97337.09;2151699;83;20894;-81
2021/10/21 13:22:40;;;;;;;9.85;6.45;;;;;;;16.14;54.83;97340.88;2058280;87;20966;-80
2021/10/21 13:25:39;;;;;;;7.45;6.12;;;;;;;16.16;54.79;97343.00;2149992;82;20939;-80
2021/10/21 13:28:41;;;;;;;10.70;6.62;;;;;;;16.20;54.83;97345.08;2150475;83;20946;-82
2021/10/21 13:31:42;;;;;;;8.28;5.70;;;;;;;16.24;54.71;97338.80;2150712;83;21346;-82
2021/10/21 13:34:42;;;;;;;12.75;5.85;;;;;;;16.31;54.16;97340.75;2151062;83;20942;-80
2021/10/21 13:37:43;;;;;;;15.35;6.17;;;;;;;16.34;53.85;97345.91;2151107;83;20983;-80
2021/10/21 13:40:44;;;;;;;7.58;5.40;;;;;;;16.34;53.54;97337.56;2058849;87;20949;-81
2021/10/21 13:43:44;;;;;;;9.20;5.33;;;;;;;16.35;53.20;97347.17;2151613;83;21404;-82
2021/10/21 13:46:44;;;;;;;16.30;5.67;;;;;;;16.40;53.31;97342.61;2150968;83;20989;-81
2021/10/21 13:49:45;;;;;;;10.25;5.80;;;;;;;16.44;52.82;97324.47;2151286;83;20937;-82
2021/10/21 13:52:45;;;;;;;14.18;5.53;;;;;;;16.48;52.79;97340.59;2151646;83;20973;-81
2021/10/21 13:55:46;;;;;;;11.35;5.78;;;;;;;16.51;52.69;97351.02;2151507;83;20957;-82